Everton, United Kingdom
Current Conditions -  °F | °C
As of 7:20 PM on Friday 21 Nov 2014 (Local Time) from EGCN Reporting Station
Light Rain Light Rain  
Wind Chill: 41°   Ceiling: 3200
Heat Index: 46°   Visibility: 3mi
Dew Point: 46°   Wind: 12mph
Humidity: 100%   Direction: 120°ESE
Pressure: 29.97"   Gusts: NA
Location:  53.4°N, 0.9°W
Report Text: EGCN 211920Z 12010KT 5000 -RA FEW009 SCT026 BKN032 08/08 Q1015 RERA
Loading
Personal Weather Stations






























Interactive Weather Map New forecast layout! Learn more

10-Day Weather Forecast

Advertisements
Track Severe Weather on mobile